sensor_id;sensor_type;location;lat;lon;timestamp;temperature;humidity
17632;DHT22;8934;51.194;17.150;2023-03-31T00:02:15;9.20;99.90
17632;DHT22;8934;51.194;17.150;2023-03-31T00:05:08;9.20;99.90
17632;DHT22;8934;51.194;17.150;2023-03-31T00:07:57;9.20;99.90
17632;DHT22;8934;51.194;17.150;2023-03-31T00:10:47;9.20;99.90
17632;DHT22;8934;51.194;17.150;2023-03-31T00:13:35;9.20;99.90
17632;DHT22;8934;51.194;17.150;2023-03-31T00:16:23;9.20;99.90
17632;DHT22;8934;51.194;17.150;2023-03-31T00:19:13;9.20;99.90
17632;DHT22;8934;51.194;17.150;2023-03-31T00:22:05;9.10;99.90
17632;DHT22;8934;51.194;17.150;2023-03-31T00:24:54;9.10;99.90
17632;DHT22;8934;51.194;17.150;2023-03-31T00:27:42;9.00;99.90
17632;DHT22;8934;51.194;17.150;2023-03-31T00:30:31;8.90;99.90
17632;DHT22;8934;51.194;17.150;2023-03-31T00:33:18;8.90;99.90
17632;DHT22;8934;51.194;17.150;2023-03-31T00:36:07;8.80;99.90
17632;DHT22;8934;51.194;17.150;2023-03-31T00:38:56;8.70;99.90
17632;DHT22;8934;51.194;17.150;2023-03-31T00:41:47;8.70;99.90
17632;DHT22;8934;51.194;17.150;2023-03-31T00:44:38;8.60;99.90
17632;DHT22;8934;51.194;17.150;2023-03-31T00:47:49;8.60;99.90
17632;DHT22;8934;51.194;17.150;2023-03-31T00:50:43;8.50;99.90
17632;DHT22;8934;51.194;17.150;2023-03-31T00:53:34;8.30;99.90
17632;DHT22;8934;51.194;17.150;2023-03-31T00:56:23;8.30;99.90
17632;DHT22;8934;51.194;17.150;2023-03-31T00:59:13;8.30;99.90
17632;DHT22;8934;51.194;17.150;2023-03-31T01:02:03;8.30;99.90
17632;DHT22;8934;51.194;17.150;2023-03-31T01:04:55;8.20;99.90
17632;DHT22;8934;51.194;17.150;2023-03-31T01:07:47;8.20;99.90
17632;DHT22;8934;51.194;17.150;2023-03-31T01:10:39;8.20;99.90
17632;DHT22;8934;51.194;17.150;2023-03-31T01:13:30;8.10;99.90
17632;DHT22;8934;51.194;17.150;2023-03-31T01:16:20;8.00;99.90
17632;DHT22;8934;51.194;17.150;2023-03-31T01:19:14;7.90;99.90
17632;DHT22;8934;51.194;17.150;2023-03-31T01:22:32;7.80;99.90
17632;DHT22;8934;51.194;17.150;2023-03-31T01:28:52;7.60;99.90
17632;DHT22;8934;51.194;17.150;2023-03-31T01:35:27;7.40;99.90
17632;DHT22;8934;51.194;17.150;2023-03-31T01:38:53;7.30;99.90
17632;DHT22;8934;51.194;17.150;2023-03-31T01:41:55;7.10;99.90
17632;DHT22;8934;51.194;17.150;2023-03-31T01:44:49;6.90;99.90
17632;DHT22;8934;51.194;17.150;2023-03-31T01:47:47;6.80;99.90
17632;DHT22;8934;51.194;17.150;2023-03-31T01:50:43;6.60;99.90
17632;DHT22;8934;51.194;17.150;2023-03-31T01:53:38;6.40;99.90
17632;DHT22;8934;51.194;17.150;2023-03-31T01:56:30;6.30;99.90
17632;DHT22;8934;51.194;17.150;2023-03-31T01:59:24;6.20;99.90
17632;DHT22;8934;51.194;17.150;2023-03-31T02:02:18;6.10;99.90
17632;DHT22;8934;51.194;17.150;2023-03-31T02:05:09;6.00;99.90
17632;DHT22;8934;51.194;17.150;2023-03-31T02:08:03;5.90;99.90
17632;DHT22;8934;51.194;17.150;2023-03-31T02:10:53;5.90;99.90
17632;DHT22;8934;51.194;17.150;2023-03-31T02:13:44;5.80;99.90
17632;DHT22;8934;51.194;17.150;2023-03-31T02:16:36;5.80;99.90
17632;DHT22;8934;51.194;17.150;2023-03-31T02:19:31;5.80;99.90
17632;DHT22;8934;51.194;17.150;2023-03-31T02:22:21;5.80;99.90
17632;DHT22;8934;51.194;17.150;2023-03-31T02:25:14;5.70;99.90
17632;DHT22;8934;51.194;17.150;2023-03-31T02:28:08;5.70;99.90
17632;DHT22;8934;51.194;17.150;2023-03-31T02:31:08;5.70;99.90
17632;DHT22;8934;51.194;17.150;2023-03-31T02:34:01;5.60;99.90
17632;DHT22;8934;51.194;17.150;2023-03-31T02:36:50;5.60;99.90
17632;DHT22;8934;51.194;17.150;2023-03-31T02:39:40;5.60;99.90
17632;DHT22;8934;51.194;17.150;2023-03-31T02:42:30;5.60;99.90
17632;DHT22;8934;51.194;17.150;2023-03-31T02:45:39;5.70;99.90
17632;DHT22;8934;51.194;17.150;2023-03-31T02:48:29;5.70;99.90
17632;DHT22;8934;51.194;17.150;2023-03-31T02:55:03;5.80;99.90
17632;DHT22;8934;51.194;17.150;2023-03-31T02:58:39;5.80;99.90
17632;DHT22;8934;51.194;17.150;2023-03-31T03:01:39;5.80;99.90
17632;DHT22;8934;51.194;17.150;2023-03-31T03:04:53;5.70;99.90
17632;DHT22;8934;51.194;17.150;2023-03-31T03:07:54;5.80;99.90
17632;DHT22;8934;51.194;17.150;2023-03-31T03:10:48;5.80;99.90
17632;DHT22;8934;51.194;17.150;2023-03-31T03:13:44;5.80;99.90
17632;DHT22;8934;51.194;17.150;2023-03-31T03:16:35;5.70;99.90
17632;DHT22;8934;51.194;17.150;2023-03-31T03:19:25;5.70;99.90
17632;DHT22;8934;51.194;17.150;2023-03-31T03:22:12;5.70;99.90
17632;DHT22;8934;51.194;17.150;2023-03-31T03:25:00;5.70;99.90
17632;DHT22;8934;51.194;17.150;2023-03-31T03:27:49;5.60;99.90
17632;DHT22;8934;51.194;17.150;2023-03-31T03:30:38;5.50;99.90
17632;DHT22;8934;51.194;17.150;2023-03-31T03:33:26;5.40;99.90
17632;DHT22;8934;51.194;17.150;2023-03-31T03:36:14;5.40;99.90
17632;DHT22;8934;51.194;17.150;2023-03-31T03:39:03;5.40;99.90
17632;DHT22;8934;51.194;17.150;2023-03-31T03:41:50;5.40;99.90
17632;DHT22;8934;51.194;17.150;2023-03-31T03:44:39;5.40;99.90
17632;DHT22;8934;51.194;17.150;2023-03-31T03:47:28;5.40;99.90
17632;DHT22;8934;51.194;17.150;2023-03-31T03:50:16;5.40;99.90
17632;DHT22;8934;51.194;17.150;2023-03-31T03:53:04;5.30;99.90
17632;DHT22;8934;51.194;17.150;2023-03-31T03:55:52;5.20;99.90
17632;DHT22;8934;51.194;17.150;2023-03-31T03:58:39;5.20;99.90
17632;DHT22;8934;51.194;17.150;2023-03-31T04:01:28;5.10;99.90
17632;DHT22;8934;51.194;17.150;2023-03-31T04:04:17;5.00;99.90
17632;DHT22;8934;51.194;17.150;2023-03-31T04:07:05;5.00;99.90
17632;DHT22;8934;51.194;17.150;2023-03-31T04:09:52;4.80;99.90
17632;DHT22;8934;51.194;17.150;2023-03-31T04:12:40;4.70;99.90
17632;DHT22;8934;51.194;17.150;2023-03-31T04:15:27;4.60;99.90
17632;DHT22;8934;51.194;17.150;2023-03-31T04:18:16;4.50;99.90
17632;DHT22;8934;51.194;17.150;2023-03-31T04:21:09;4.50;99.90
17632;DHT22;8934;51.194;17.150;2023-03-31T04:24:01;4.40;99.90
17632;DHT22;8934;51.194;17.150;2023-03-31T04:26:49;4.30;99.90
17632;DHT22;8934;51.194;17.150;2023-03-31T04:29:37;4.20;99.90
17632;DHT22;8934;51.194;17.150;2023-03-31T04:32:25;4.20;99.90
17632;DHT22;8934;51.194;17.150;2023-03-31T04:35:15;4.20;99.90
17632;DHT22;8934;51.194;17.150;2023-03-31T04:38:05;4.20;99.90
17632;DHT22;8934;51.194;17.150;2023-03-31T04:40:54;4.20;99.90
17632;DHT22;8934;51.194;17.150;2023-03-31T04:43:43;4.10;99.90
17632;DHT22;8934;51.194;17.150;2023-03-31T04:46:31;4.20;99.90
17632;DHT22;8934;51.194;17.150;2023-03-31T04:49:19;4.20;99.90
17632;DHT22;8934;51.194;17.150;2023-03-31T04:52:08;4.20;99.90
17632;DHT22;8934;51.194;17.150;2023-03-31T04:54:56;4.20;99.90
17632;DHT22;8934;51.194;17.150;2023-03-31T04:57:44;4.30;99.90
17632;DHT22;8934;51.194;17.150;2023-03-31T05:00:33;4.30;99.90
17632;DHT22;8934;51.194;17.150;2023-03-31T05:03:27;4.40;99.90
17632;DHT22;8934;51.194;17.150;2023-03-31T05:06:15;4.40;99.90
17632;DHT22;8934;51.194;17.150;2023-03-31T05:09:05;4.40;99.90
17632;DHT22;8934;51.194;17.150;2023-03-31T05:11:55;4.50;99.90
17632;DHT22;8934;51.194;17.150;2023-03-31T05:14:43;4.50;99.90
17632;DHT22;8934;51.194;17.150;2023-03-31T05:17:33;4.50;99.90
17632;DHT22;8934;51.194;17.150;2023-03-31T05:20:21;4.50;99.90
17632;DHT22;8934;51.194;17.150;2023-03-31T05:23:09;4.50;99.90
17632;DHT22;8934;51.194;17.150;2023-03-31T05:25:58;4.50;99.90
17632;DHT22;8934;51.194;17.150;2023-03-31T05:28:47;4.40;99.90
17632;DHT22;8934;51.194;17.150;2023-03-31T05:31:35;4.40;99.90
17632;DHT22;8934;51.194;17.150;2023-03-31T05:34:22;4.30;99.90
17632;DHT22;8934;51.194;17.150;2023-03-31T05:37:13;4.30;99.90
17632;DHT22;8934;51.194;17.150;2023-03-31T05:40:02;4.40;99.90
17632;DHT22;8934;51.194;17.150;2023-03-31T05:42:52;4.50;99.90
17632;DHT22;8934;51.194;17.150;2023-03-31T05:45:40;4.60;99.90
17632;DHT22;8934;51.194;17.150;2023-03-31T05:48:28;4.90;99.90
17632;DHT22;8934;51.194;17.150;2023-03-31T05:51:16;5.10;99.90
17632;DHT22;8934;51.194;17.150;2023-03-31T05:54:04;5.40;99.90
17632;DHT22;8934;51.194;17.150;2023-03-31T05:56:53;5.70;99.90
17632;DHT22;8934;51.194;17.150;2023-03-31T05:59:43;6.00;99.90
17632;DHT22;8934;51.194;17.150;2023-03-31T06:02:32;6.40;99.90
17632;DHT22;8934;51.194;17.150;2023-03-31T06:05:20;6.60;99.90
17632;DHT22;8934;51.194;17.150;2023-03-31T06:08:12;6.90;99.90
17632;DHT22;8934;51.194;17.150;2023-03-31T06:11:03;7.10;99.90
17632;DHT22;8934;51.194;17.150;2023-03-31T06:13:52;7.40;99.90
17632;DHT22;8934;51.194;17.150;2023-03-31T06:16:42;7.80;99.90
17632;DHT22;8934;51.194;17.150;2023-03-31T06:19:32;8.10;99.90
17632;DHT22;8934;51.194;17.150;2023-03-31T06:22:21;8.40;99.90
17632;DHT22;8934;51.194;17.150;2023-03-31T06:25:09;8.80;99.90
17632;DHT22;8934;51.194;17.150;2023-03-31T06:27:57;9.10;99.90
17632;DHT22;8934;51.194;17.150;2023-03-31T06:30:45;9.30;99.90
17632;DHT22;8934;51.194;17.150;2023-03-31T06:33:35;9.50;99.90
17632;DHT22;8934;51.194;17.150;2023-03-31T06:36:23;9.60;99.90
17632;DHT22;8934;51.194;17.150;2023-03-31T06:39:11;9.70;99.90
17632;DHT22;8934;51.194;17.150;2023-03-31T06:41:58;9.80;99.90
17632;DHT22;8934;51.194;17.150;2023-03-31T06:44:47;9.90;99.90
17632;DHT22;8934;51.194;17.150;2023-03-31T06:47:35;10.00;99.90
17632;DHT22;8934;51.194;17.150;2023-03-31T06:50:25;10.10;99.90
17632;DHT22;8934;51.194;17.150;2023-03-31T06:53:14;10.20;99.90
17632;DHT22;8934;51.194;17.150;2023-03-31T06:56:02;10.30;99.90
17632;DHT22;8934;51.194;17.150;2023-03-31T06:58:52;10.40;99.90
17632;DHT22;8934;51.194;17.150;2023-03-31T07:01:39;10.50;99.90
17632;DHT22;8934;51.194;17.150;2023-03-31T07:04:29;10.70;99.90
17632;DHT22;8934;51.194;17.150;2023-03-31T07:07:18;11.00;99.90
17632;DHT22;8934;51.194;17.150;2023-03-31T07:10:07;11.60;99.90
17632;DHT22;8934;51.194;17.150;2023-03-31T07:12:56;12.10;99.90
17632;DHT22;8934;51.194;17.150;2023-03-31T07:15:47;12.40;99.90
17632;DHT22;8934;51.194;17.150;2023-03-31T07:18:35;12.60;99.90
17632;DHT22;8934;51.194;17.150;2023-03-31T07:21:26;12.70;99.90
17632;DHT22;8934;51.194;17.150;2023-03-31T07:24:16;12.80;99.90
17632;DHT22;8934;51.194;17.150;2023-03-31T07:27:04;13.00;99.90
17632;DHT22;8934;51.194;17.150;2023-03-31T07:29:55;13.20;99.90
17632;DHT22;8934;51.194;17.150;2023-03-31T07:32:45;13.40;99.90
17632;DHT22;8934;51.194;17.150;2023-03-31T07:35:37;13.60;99.90
17632;DHT22;8934;51.194;17.150;2023-03-31T07:38:25;13.70;99.90
17632;DHT22;8934;51.194;17.150;2023-03-31T07:41:16;13.90;99.90
17632;DHT22;8934;51.194;17.150;2023-03-31T07:44:04;14.00;99.90
17632;DHT22;8934;51.194;17.150;2023-03-31T07:46:53;14.00;99.90
17632;DHT22;8934;51.194;17.150;2023-03-31T07:49:41;14.00;99.90
17632;DHT22;8934;51.194;17.150;2023-03-31T07:52:29;13.90;99.90
17632;DHT22;8934;51.194;17.150;2023-03-31T07:55:18;13.90;99.90
17632;DHT22;8934;51.194;17.150;2023-03-31T07:58:08;13.90;99.90
17632;DHT22;8934;51.194;17.150;2023-03-31T08:00:57;13.90;99.90
17632;DHT22;8934;51.194;17.150;2023-03-31T08:03:47;13.90;99.90
17632;DHT22;8934;51.194;17.150;2023-03-31T08:06:35;13.90;99.90
17632;DHT22;8934;51.194;17.150;2023-03-31T08:09:23;13.90;99.90
17632;DHT22;8934;51.194;17.150;2023-03-31T08:12:13;14.00;99.90
17632;DHT22;8934;51.194;17.150;2023-03-31T08:15:04;14.10;99.90
17632;DHT22;8934;51.194;17.150;2023-03-31T08:17:51;14.20;99.90
17632;DHT22;8934;51.194;17.150;2023-03-31T08:20:40;14.40;99.90
17632;DHT22;8934;51.194;17.150;2023-03-31T08:23:27;14.60;99.90
17632;DHT22;8934;51.194;17.150;2023-03-31T08:26:16;14.80;99.90
17632;DHT22;8934;51.194;17.150;2023-03-31T08:29:04;15.10;99.90
17632;DHT22;8934;51.194;17.150;2023-03-31T08:31:54;15.30;99.90
17632;DHT22;8934;51.194;17.150;2023-03-31T08:34:42;15.60;99.90
17632;DHT22;8934;51.194;17.150;2023-03-31T08:37:31;15.90;99.90
17632;DHT22;8934;51.194;17.150;2023-03-31T08:40:20;16.00;99.90
17632;DHT22;8934;51.194;17.150;2023-03-31T08:43:13;16.30;99.90
17632;DHT22;8934;51.194;17.150;2023-03-31T08:46:04;16.50;99.90
17632;DHT22;8934;51.194;17.150;2023-03-31T08:48:54;16.60;99.90
17632;DHT22;8934;51.194;17.150;2023-03-31T08:51:48;16.80;99.90
17632;DHT22;8934;51.194;17.150;2023-03-31T08:54:39;16.70;99.90
17632;DHT22;8934;51.194;17.150;2023-03-31T08:57:34;16.70;99.90
17632;DHT22;8934;51.194;17.150;2023-03-31T09:00:22;16.70;99.90
17632;DHT22;8934;51.194;17.150;2023-03-31T09:03:17;16.80;99.90
17632;DHT22;8934;51.194;17.150;2023-03-31T09:06:10;16.80;99.90
17632;DHT22;8934;51.194;17.150;2023-03-31T09:09:02;16.80;99.90
17632;DHT22;8934;51.194;17.150;2023-03-31T09:11:57;16.90;99.90
17632;DHT22;8934;51.194;17.150;2023-03-31T09:14:50;17.00;99.90
17632;DHT22;8934;51.194;17.150;2023-03-31T09:17:42;17.20;99.90
17632;DHT22;8934;51.194;17.150;2023-03-31T09:20:34;17.50;99.90
17632;DHT22;8934;51.194;17.150;2023-03-31T09:23:29;17.50;99.90
17632;DHT22;8934;51.194;17.150;2023-03-31T09:26:24;17.50;99.90
17632;DHT22;8934;51.194;17.150;2023-03-31T09:29:16;17.50;99.90
17632;DHT22;8934;51.194;17.150;2023-03-31T09:32:13;17.60;99.90
17632;DHT22;8934;51.194;17.150;2023-03-31T09:35:12;17.70;99.90
17632;DHT22;8934;51.194;17.150;2023-03-31T09:38:00;18.00;99.90
17632;DHT22;8934;51.194;17.150;2023-03-31T09:40:50;18.10;99.90
17632;DHT22;8934;51.194;17.150;2023-03-31T09:43:39;18.00;99.90
17632;DHT22;8934;51.194;17.150;2023-03-31T09:46:30;18.00;99.90
17632;DHT22;8934;51.194;17.150;2023-03-31T09:49:20;17.90;99.90
17632;DHT22;8934;51.194;17.150;2023-03-31T09:52:15;17.70;99.90
17632;DHT22;8934;51.194;17.150;2023-03-31T09:55:17;17.30;99.90
17632;DHT22;8934;51.194;17.150;2023-03-31T09:58:26;17.10;99.90
17632;DHT22;8934;51.194;17.150;2023-03-31T10:01:14;17.00;99.90
17632;DHT22;8934;51.194;17.150;2023-03-31T10:04:06;16.90;99.90
17632;DHT22;8934;51.194;17.150;2023-03-31T10:06:55;16.70;99.90
17632;DHT22;8934;51.194;17.150;2023-03-31T10:09:43;16.70;99.90
17632;DHT22;8934;51.194;17.150;2023-03-31T10:12:31;16.50;99.90
17632;DHT22;8934;51.194;17.150;2023-03-31T10:15:25;16.30;99.90
17632;DHT22;8934;51.194;17.150;2023-03-31T10:18:17;16.10;99.90
17632;DHT22;8934;51.194;17.150;2023-03-31T10:21:13;16.00;99.90
17632;DHT22;8934;51.194;17.150;2023-03-31T10:24:07;16.00;99.90
17632;DHT22;8934;51.194;17.150;2023-03-31T10:26:56;16.10;99.90
17632;DHT22;8934;51.194;17.150;2023-03-31T10:29:45;16.20;99.90
17632;DHT22;8934;51.194;17.150;2023-03-31T10:32:38;16.10;99.90
17632;DHT22;8934;51.194;17.150;2023-03-31T10:35:31;16.10;99.90
17632;DHT22;8934;51.194;17.150;2023-03-31T10:38:25;16.20;99.90
17632;DHT22;8934;51.194;17.150;2023-03-31T10:41:18;16.30;99.90
17632;DHT22;8934;51.194;17.150;2023-03-31T10:44:33;16.50;99.90
17632;DHT22;8934;51.194;17.150;2023-03-31T10:47:22;16.60;99.90
17632;DHT22;8934;51.194;17.150;2023-03-31T10:50:15;16.60;99.90
17632;DHT22;8934;51.194;17.150;2023-03-31T10:53:05;16.70;99.90
17632;DHT22;8934;51.194;17.150;2023-03-31T10:56:07;16.50;99.90
17632;DHT22;8934;51.194;17.150;2023-03-31T11:02:21;16.40;99.90
17632;DHT22;8934;51.194;17.150;2023-03-31T11:05:27;16.10;99.90
17632;DHT22;8934;51.194;17.150;2023-03-31T11:08:29;15.90;99.90
17632;DHT22;8934;51.194;17.150;2023-03-31T11:14:49;16.00;99.90
17632;DHT22;8934;51.194;17.150;2023-03-31T11:17:53;16.10;99.90
17632;DHT22;8934;51.194;17.150;2023-03-31T11:20:52;16.10;99.90
17632;DHT22;8934;51.194;17.150;2023-03-31T11:23:44;16.20;99.90
17632;DHT22;8934;51.194;17.150;2023-03-31T11:26:41;16.30;99.90
17632;DHT22;8934;51.194;17.150;2023-03-31T11:29:34;16.40;99.90
17632;DHT22;8934;51.194;17.150;2023-03-31T11:32:33;16.70;99.90
17632;DHT22;8934;51.194;17.150;2023-03-31T11:35:41;17.20;99.90
17632;DHT22;8934;51.194;17.150;2023-03-31T11:38:53;18.20;99.90
17632;DHT22;8934;51.194;17.150;2023-03-31T11:41:45;19.10;99.90
17632;DHT22;8934;51.194;17.150;2023-03-31T11:44:38;19.50;99.90
17632;DHT22;8934;51.194;17.150;2023-03-31T11:47:29;19.70;99.90
17632;DHT22;8934;51.194;17.150;2023-03-31T11:50:20;19.50;99.90
17632;DHT22;8934;51.194;17.150;2023-03-31T11:53:14;19.00;99.90
17632;DHT22;8934;51.194;17.150;2023-03-31T11:56:07;18.80;99.90
17632;DHT22;8934;51.194;17.150;2023-03-31T11:58:58;18.70;99.90
17632;DHT22;8934;51.194;17.150;2023-03-31T12:01:50;18.80;99.90
17632;DHT22;8934;51.194;17.150;2023-03-31T12:04:42;18.60;99.90
17632;DHT22;8934;51.194;17.150;2023-03-31T12:07:34;18.50;99.90
17632;DHT22;8934;51.194;17.150;2023-03-31T12:10:30;18.40;99.90
17632;DHT22;8934;51.194;17.150;2023-03-31T12:13:38;18.40;99.90
17632;DHT22;8934;51.194;17.150;2023-03-31T12:16:36;18.30;99.90
17632;DHT22;8934;51.194;17.150;2023-03-31T12:19:26;18.00;99.90
17632;DHT22;8934;51.194;17.150;2023-03-31T12:22:17;17.80;99.90
17632;DHT22;8934;51.194;17.150;2023-03-31T12:25:11;17.70;99.90
17632;DHT22;8934;51.194;17.150;2023-03-31T12:28:01;17.50;99.90
17632;DHT22;8934;51.194;17.150;2023-03-31T12:30:51;17.30;99.90
17632;DHT22;8934;51.194;17.150;2023-03-31T12:33:41;17.10;99.90
17632;DHT22;8934;51.194;17.150;2023-03-31T12:36:40;16.80;99.90
17632;DHT22;8934;51.194;17.150;2023-03-31T12:39:42;16.60;99.90
17632;DHT22;8934;51.194;17.150;2023-03-31T12:42:46;16.40;99.90
17632;DHT22;8934;51.194;17.150;2023-03-31T12:45:38;16.10;99.90
17632;DHT22;8934;51.194;17.150;2023-03-31T12:48:48;15.90;99.90
17632;DHT22;8934;51.194;17.150;2023-03-31T12:51:57;15.80;99.90
17632;DHT22;8934;51.194;17.150;2023-03-31T13:01:23;15.70;99.90
17632;DHT22;8934;51.194;17.150;2023-03-31T13:04:19;15.70;99.90
17632;DHT22;8934;51.194;17.150;2023-03-31T13:07:12;15.90;99.90
17632;DHT22;8934;51.194;17.150;2023-03-31T13:10:25;16.10;99.90
17632;DHT22;8934;51.194;17.150;2023-03-31T13:13:15;16.50;99.90
17632;DHT22;8934;51.194;17.150;2023-03-31T13:16:03;16.70;99.90
17632;DHT22;8934;51.194;17.150;2023-03-31T13:18:53;16.80;99.90
17632;DHT22;8934;51.194;17.150;2023-03-31T13:21:56;16.60;99.90
17632;DHT22;8934;51.194;17.150;2023-03-31T13:24:44;16.30;99.90
17632;DHT22;8934;51.194;17.150;2023-03-31T13:27:33;16.00;99.90
17632;DHT22;8934;51.194;17.150;2023-03-31T13:30:45;15.80;99.90
17632;DHT22;8934;51.194;17.150;2023-03-31T13:33:41;15.70;99.90
17632;DHT22;8934;51.194;17.150;2023-03-31T13:36:51;15.60;99.90
17632;DHT22;8934;51.194;17.150;2023-03-31T13:40:04;15.50;99.90
17632;DHT22;8934;51.194;17.150;2023-03-31T13:43:26;15.30;99.90
17632;DHT22;8934;51.194;17.150;2023-03-31T13:49:49;14.90;99.90
17632;DHT22;8934;51.194;17.150;2023-03-31T13:52:45;14.90;99.90
17632;DHT22;8934;51.194;17.150;2023-03-31T13:55:59;14.80;99.90
17632;DHT22;8934;51.194;17.150;2023-03-31T13:59:09;14.60;99.90
17632;DHT22;8934;51.194;17.150;2023-03-31T14:02:27;14.50;99.90
17632;DHT22;8934;51.194;17.150;2023-03-31T14:05:28;14.30;99.90
17632;DHT22;8934;51.194;17.150;2023-03-31T14:08:23;14.20;99.90
17632;DHT22;8934;51.194;17.150;2023-03-31T14:11:24;14.10;99.90
17632;DHT22;8934;51.194;17.150;2023-03-31T14:14:13;13.90;99.90
17632;DHT22;8934;51.194;17.150;2023-03-31T14:17:02;13.80;99.90
17632;DHT22;8934;51.194;17.150;2023-03-31T14:20:01;13.70;99.90
17632;DHT22;8934;51.194;17.150;2023-03-31T14:23:03;13.70;99.90
17632;DHT22;8934;51.194;17.150;2023-03-31T14:26:00;13.60;99.90
17632;DHT22;8934;51.194;17.150;2023-03-31T14:29:01;13.50;99.90
17632;DHT22;8934;51.194;17.150;2023-03-31T14:32:01;13.40;99.90
17632;DHT22;8934;51.194;17.150;2023-03-31T14:34:58;13.30;99.90
17632;DHT22;8934;51.194;17.150;2023-03-31T14:37:49;13.30;99.90
17632;DHT22;8934;51.194;17.150;2023-03-31T14:40:44;13.20;99.90
17632;DHT22;8934;51.194;17.150;2023-03-31T14:43:35;13.20;99.90
17632;DHT22;8934;51.194;17.150;2023-03-31T14:46:30;13.30;99.90
17632;DHT22;8934;51.194;17.150;2023-03-31T14:49:20;13.30;99.90
17632;DHT22;8934;51.194;17.150;2023-03-31T14:52:14;13.30;99.90
17632;DHT22;8934;51.194;17.150;2023-03-31T14:55:04;13.30;99.90
17632;DHT22;8934;51.194;17.150;2023-03-31T14:57:53;13.20;99.90
17632;DHT22;8934;51.194;17.150;2023-03-31T15:00:42;13.20;99.90
17632;DHT22;8934;51.194;17.150;2023-03-31T15:03:33;13.20;99.90
17632;DHT22;8934;51.194;17.150;2023-03-31T15:06:23;13.20;99.90
17632;DHT22;8934;51.194;17.150;2023-03-31T15:09:18;13.20;99.90
17632;DHT22;8934;51.194;17.150;2023-03-31T15:12:10;13.30;99.90
17632;DHT22;8934;51.194;17.150;2023-03-31T15:15:02;13.30;99.90
17632;DHT22;8934;51.194;17.150;2023-03-31T15:17:50;13.50;99.90
17632;DHT22;8934;51.194;17.150;2023-03-31T15:20:41;13.70;99.90
17632;DHT22;8934;51.194;17.150;2023-03-31T15:23:30;13.80;99.90
17632;DHT22;8934;51.194;17.150;2023-03-31T15:26:20;14.00;99.90
17632;DHT22;8934;51.194;17.150;2023-03-31T15:29:20;14.10;99.90
17632;DHT22;8934;51.194;17.150;2023-03-31T15:32:15;14.10;99.90
17632;DHT22;8934;51.194;17.150;2023-03-31T15:35:05;14.00;99.90
17632;DHT22;8934;51.194;17.150;2023-03-31T15:38:16;13.80;99.90
17632;DHT22;8934;51.194;17.150;2023-03-31T15:41:10;13.70;99.90
17632;DHT22;8934;51.194;17.150;2023-03-31T15:44:05;13.50;99.90
17632;DHT22;8934;51.194;17.150;2023-03-31T15:46:59;13.30;99.90
17632;DHT22;8934;51.194;17.150;2023-03-31T15:49:53;13.10;99.90
17632;DHT22;8934;51.194;17.150;2023-03-31T15:52:46;13.00;99.90
17632;DHT22;8934;51.194;17.150;2023-03-31T15:55:41;12.90;99.90
17632;DHT22;8934;51.194;17.150;2023-03-31T15:58:52;12.80;99.90
17632;DHT22;8934;51.194;17.150;2023-03-31T16:01:43;12.70;99.90
17632;DHT22;8934;51.194;17.150;2023-03-31T16:04:31;12.60;99.90
17632;DHT22;8934;51.194;17.150;2023-03-31T16:07:21;12.60;99.90
17632;DHT22;8934;51.194;17.150;2023-03-31T16:10:17;12.60;99.90
17632;DHT22;8934;51.194;17.150;2023-03-31T16:13:10;12.50;99.90
17632;DHT22;8934;51.194;17.150;2023-03-31T16:15:59;12.50;99.90
17632;DHT22;8934;51.194;17.150;2023-03-31T16:18:49;12.40;99.90
17632;DHT22;8934;51.194;17.150;2023-03-31T16:21:40;12.30;99.90
17632;DHT22;8934;51.194;17.150;2023-03-31T16:24:30;12.20;99.90
17632;DHT22;8934;51.194;17.150;2023-03-31T16:27:19;12.20;99.90
17632;DHT22;8934;51.194;17.150;2023-03-31T16:30:11;12.10;99.90
17632;DHT22;8934;51.194;17.150;2023-03-31T16:33:05;12.00;99.90
17632;DHT22;8934;51.194;17.150;2023-03-31T16:35:54;12.00;99.90
17632;DHT22;8934;51.194;17.150;2023-03-31T16:38:44;11.90;99.90
17632;DHT22;8934;51.194;17.150;2023-03-31T16:41:34;11.90;99.90
17632;DHT22;8934;51.194;17.150;2023-03-31T16:44:23;11.80;99.90
17632;DHT22;8934;51.194;17.150;2023-03-31T16:47:16;11.80;99.90
17632;DHT22;8934;51.194;17.150;2023-03-31T16:50:20;11.70;99.90
17632;DHT22;8934;51.194;17.150;2023-03-31T16:53:11;11.70;99.90
17632;DHT22;8934;51.194;17.150;2023-03-31T16:55:59;11.60;99.90
17632;DHT22;8934;51.194;17.150;2023-03-31T16:58:47;11.60;99.90
17632;DHT22;8934;51.194;17.150;2023-03-31T17:01:36;11.60;99.90
17632;DHT22;8934;51.194;17.150;2023-03-31T17:04:26;11.50;99.90
17632;DHT22;8934;51.194;17.150;2023-03-31T17:07:15;11.50;99.90
17632;DHT22;8934;51.194;17.150;2023-03-31T17:10:03;11.50;99.90
17632;DHT22;8934;51.194;17.150;2023-03-31T17:12:51;11.50;99.90
17632;DHT22;8934;51.194;17.150;2023-03-31T17:15:39;11.40;99.90
17632;DHT22;8934;51.194;17.150;2023-03-31T17:18:31;11.40;99.90
17632;DHT22;8934;51.194;17.150;2023-03-31T17:21:22;11.30;99.90
17632;DHT22;8934;51.194;17.150;2023-03-31T17:24:10;11.10;99.90
17632;DHT22;8934;51.194;17.150;2023-03-31T17:26:58;11.00;99.90
17632;DHT22;8934;51.194;17.150;2023-03-31T17:29:45;10.90;99.90
17632;DHT22;8934;51.194;17.150;2023-03-31T17:32:34;10.70;99.90
17632;DHT22;8934;51.194;17.150;2023-03-31T17:35:22;10.60;99.90
17632;DHT22;8934;51.194;17.150;2023-03-31T17:38:13;10.50;99.90
17632;DHT22;8934;51.194;17.150;2023-03-31T17:41:02;10.40;99.90
17632;DHT22;8934;51.194;17.150;2023-03-31T17:43:50;10.30;99.90
17632;DHT22;8934;51.194;17.150;2023-03-31T17:46:38;10.20;99.90
17632;DHT22;8934;51.194;17.150;2023-03-31T17:49:26;10.20;99.90
17632;DHT22;8934;51.194;17.150;2023-03-31T17:52:14;10.20;99.90
17632;DHT22;8934;51.194;17.150;2023-03-31T17:55:04;10.10;99.90
17632;DHT22;8934;51.194;17.150;2023-03-31T17:57:53;10.10;99.90
17632;DHT22;8934;51.194;17.150;2023-03-31T18:00:41;10.10;99.90
17632;DHT22;8934;51.194;17.150;2023-03-31T18:03:30;10.10;99.90
17632;DHT22;8934;51.194;17.150;2023-03-31T18:06:17;10.10;99.90
17632;DHT22;8934;51.194;17.150;2023-03-31T18:09:05;10.10;99.90
17632;DHT22;8934;51.194;17.150;2023-03-31T18:11:55;10.10;99.90
17632;DHT22;8934;51.194;17.150;2023-03-31T18:14:44;10.10;99.90
17632;DHT22;8934;51.194;17.150;2023-03-31T18:17:32;10.10;99.90
17632;DHT22;8934;51.194;17.150;2023-03-31T18:20:20;10.10;99.90
17632;DHT22;8934;51.194;17.150;2023-03-31T18:23:08;10.10;99.90
17632;DHT22;8934;51.194;17.150;2023-03-31T18:25:56;10.10;99.90
17632;DHT22;8934;51.194;17.150;2023-03-31T18:28:45;10.10;99.90
17632;DHT22;8934;51.194;17.150;2023-03-31T18:31:34;10.00;99.90
17632;DHT22;8934;51.194;17.150;2023-03-31T18:34:22;10.00;99.90
17632;DHT22;8934;51.194;17.150;2023-03-31T18:37:10;10.00;99.90
17632;DHT22;8934;51.194;17.150;2023-03-31T18:39:58;10.10;99.90
17632;DHT22;8934;51.194;17.150;2023-03-31T18:42:47;10.10;99.90
17632;DHT22;8934;51.194;17.150;2023-03-31T18:45:36;10.10;99.90